Preview of NWS' New Version of Forecast
This preview is not operational and should not be used for support decisions.

Terminal Aerodrome Forecast (TAF)

Issued by National Weather Service (NWS)

                            
000
FTUS41 KGYX 171728
TAFRKD
TAF
KRKD 171728Z 1718/1818 23006KT P6SM SCT012 BKN025
     FM172000 VRB04KT 6SM -SHRA BKN025 OVC040
     FM180200 VRB03KT P6SM SCT030 BKN080 OVC120
     FM181300 08007KT P6SM BKN080 BKN120=